Terminal Aerodrome Forecast
Issued by NWS North Platte, NE

Home | Current Version | Previous Version | Text Only | Print | Product List | Glossary On
Versions: 1 2 3 4 5 6 7 8 9 10 11 12 13 14 15 16 17 18 19 20 21 22 23
789
FTUS43 KLBF 270536
TAFLBF
TAF
KLBF 270536Z 2706/2806 10006KT P6SM SCT060
     FM270800 VRB03KT P6SM SCT015
     FM270900 00000KT P6SM SCT008 OVC015
      TEMPO 2712/2715 2SM BR OVC008
     FM271700 16004KT P6SM SCT015 SCT050
     FM272000 16007KT P6SM SCT050 SCT250
     FM280000 13006KT P6SM BKN250=

USA.gov is the U.S. government's official web portal to all federal, state and local government web resources and services.